TimeCST,TemperatureF,Dew PointF,Humidity,Sea Level PressureIn,VisibilityMPH,Wind Direction,Wind SpeedMPH,Gust SpeedMPH,PrecipitationIn,Events,Conditions,WindDirDegrees,DateUTC
12:15 AM,53.6,53.6,100,29.96,0.2,Calm,Calm,-,N/A,,Overcast,0,2012-12-07 06:15:00
12:35 AM,53.6,53.6,100,29.96,0.2,SE,3.5,-,N/A,,Overcast,140,2012-12-07 06:35:00
12:55 AM,53.6,53.6,100,29.96,0.2,SE,4.6,-,N/A,,Overcast,140,2012-12-07 06:55:00
1:15 AM,53.6,53.6,100,29.96,0.5,SSE,3.5,-,N/A,,Overcast,150,2012-12-07 07:15:00
1:35 AM,53.6,53.6,100,29.95,3.0,SSE,4.6,-,0.01,,Overcast,160,2012-12-07 07:35:00
1:55 AM,53.6,53.6,100,29.95,3.0,South,4.6,-,0.04,,Overcast,170,2012-12-07 07:55:00
2:15 AM,55.4,55.4,100,29.95,5.0,SSE,5.8,-,N/A,,Overcast,160,2012-12-07 08:15:00
2:35 AM,55.4,55.4,100,29.94,3.0,SSE,5.8,-,0.03,,Overcast,160,2012-12-07 08:35:00
2:55 AM,55.4,55.4,100,29.94,6.0,South,5.8,-,0.04,,Overcast,170,2012-12-07 08:55:00
3:15 AM,55.4,55.4,100,29.94,5.0,SSE,6.9,-,N/A,,Overcast,160,2012-12-07 09:15:00
3:35 AM,55.4,55.4,100,29.93,8.0,South,5.8,-,N/A,,Overcast,170,2012-12-07 09:35:00
3:55 AM,55.4,55.4,100,29.93,5.0,South,3.5,-,0.02,,Overcast,170,2012-12-07 09:55:00
4:15 AM,55.4,55.4,100,29.93,7.0,South,6.9,-,0.01,,Mostly Cloudy,180,2012-12-07 10:15:00
4:35 AM,55.4,55.4,100,29.93,3.0,South,6.9,-,0.06,,Mostly Cloudy,180,2012-12-07 10:35:00
4:55 AM,55.4,55.4,100,29.93,7.0,SSE,3.5,-,0.11,,Overcast,160,2012-12-07 10:55:00
5:15 AM,55.4,55.4,100,29.93,10.0,South,4.6,-,N/A,,Overcast,170,2012-12-07 11:15:00
5:35 AM,55.4,55.4,100,29.93,10.0,South,6.9,-,N/A,,Mostly Cloudy,170,2012-12-07 11:35:00
5:55 AM,55.4,55.4,100,29.93,10.0,South,8.1,-,N/A,,Overcast,180,2012-12-07 11:55:00
6:15 AM,55.4,55.4,100,29.93,10.0,South,9.2,-,N/A,,Overcast,170,2012-12-07 12:15:00
6:35 AM,55.4,55.4,100,29.93,10.0,South,8.1,-,N/A,,Overcast,180,2012-12-07 12:35:00
6:55 AM,55.4,55.4,100,29.93,10.0,South,10.4,-,N/A,,Overcast,180,2012-12-07 12:55:00
7:15 AM,55.4,55.4,100,29.93,10.0,South,6.9,-,N/A,,Overcast,180,2012-12-07 13:15:00
7:35 AM,55.4,55.4,100,29.93,10.0,South,8.1,-,N/A,,Overcast,180,2012-12-07 13:35:00
7:55 AM,55.4,55.4,100,29.94,4.0,South,9.2,-,N/A,,Overcast,190,2012-12-07 13:55:00
8:15 AM,55.4,55.4,100,29.94,2.0,South,10.4,-,0.02,,Overcast,180,2012-12-07 14:15:00
8:35 AM,55.4,55.4,100,29.94,1.5,South,6.9,-,0.04,,Overcast,190,2012-12-07 14:35:00
8:55 AM,55.4,55.4,100,29.94,1.0,South,9.2,-,0.10,,Overcast,180,2012-12-07 14:55:00
9:15 AM,55.4,55.4,100,29.95,2.5,South,8.1,-,0.01,,Overcast,180,2012-12-07 15:15:00
9:35 AM,55.4,55.4,100,29.94,8.0,SSW,8.1,-,0.02,,Mostly Cloudy,200,2012-12-07 15:35:00
9:55 AM,55.4,55.4,100,29.95,7.0,South,8.1,-,0.02,,Mostly Cloudy,190,2012-12-07 15:55:00
10:15 AM,55.4,55.4,100,29.95,3.0,South,8.1,-,N/A,,Mostly Cloudy,190,2012-12-07 16:15:00
10:35 AM,57.2,55.4,94,29.94,8.0,SSW,6.9,-,N/A,,Mostly Cloudy,200,2012-12-07 16:35:00
10:55 AM,57.2,55.4,94,29.93,10.0,SSW,8.1,-,N/A,,Overcast,200,2012-12-07 16:55:00
11:15 AM,57.2,57.2,100,29.92,10.0,SSW,6.9,-,N/A,,Overcast,210,2012-12-07 17:15:00
11:35 AM,57.2,57.2,100,29.91,10.0,SSW,9.2,-,N/A,,Overcast,210,2012-12-07 17:35:00
11:55 AM,57.2,57.2,100,29.91,8.0,SSW,6.9,-,N/A,,Overcast,210,2012-12-07 17:55:00
12:15 PM,57.2,57.2,100,29.90,7.0,SW,9.2,-,N/A,,Overcast,220,2012-12-07 18:15:00
12:35 PM,57.2,57.2,100,29.89,5.0,SW,8.1,-,N/A,,Overcast,220,2012-12-07 18:35:00
12:55 PM,57.2,57.2,100,29.88,7.0,SSW,8.1,-,N/A,,Overcast,210,2012-12-07 18:55:00
1:15 PM,57.2,57.2,100,29.87,8.0,SSW,6.9,-,N/A,,Overcast,210,2012-12-07 19:15:00
1:35 PM,57.2,57.2,100,29.87,8.0,SSW,5.8,-,N/A,,Overcast,200,2012-12-07 19:35:00
1:55 PM,59.0,57.2,94,29.87,8.0,SSW,9.2,-,N/A,,Overcast,210,2012-12-07 19:55:00
2:15 PM,59.0,57.2,94,29.87,8.0,SW,8.1,-,N/A,,Overcast,220,2012-12-07 20:15:00
2:35 PM,59.0,57.2,94,29.86,9.0,SSW,5.8,-,N/A,,Overcast,200,2012-12-07 20:35:00
2:55 PM,59.0,57.2,94,29.87,10.0,SSW,6.9,-,N/A,,Overcast,200,2012-12-07 20:55:00
3:15 PM,59.0,57.2,94,29.87,10.0,SSW,6.9,-,N/A,,Overcast,210,2012-12-07 21:15:00
3:35 PM,59.0,57.2,94,29.87,10.0,SW,4.6,-,N/A,,Overcast,230,2012-12-07 21:35:00
3:55 PM,59.0,57.2,94,29.87,10.0,South,5.8,-,N/A,,Overcast,180,2012-12-07 21:55:00
4:15 PM,59.0,57.2,94,29.86,10.0,South,6.9,-,N/A,,Scattered Clouds,180,2012-12-07 22:15:00
4:35 PM,57.2,57.2,100,29.87,10.0,South,6.9,-,N/A,,Clear,190,2012-12-07 22:35:00
4:55 PM,57.2,55.4,94,29.87,10.0,SSW,4.6,-,N/A,,Clear,200,2012-12-07 22:55:00
5:15 PM,57.2,55.4,94,29.88,10.0,South,5.8,-,N/A,,Mostly Cloudy,190,2012-12-07 23:15:00
5:35 PM,57.2,55.4,94,29.88,10.0,South,4.6,-,N/A,,Mostly Cloudy,190,2012-12-07 23:35:00
5:55 PM,57.2,55.4,94,29.89,9.0,South,3.5,-,N/A,,Partly Cloudy,190,2012-12-07 23:55:00
6:15 PM,57.2,55.4,94,29.89,7.0,SSW,4.6,-,N/A,,Scattered Clouds,200,2012-12-08 00:15:00
6:35 PM,57.2,57.2,100,29.89,7.0,South,5.8,-,N/A,,Mostly Cloudy,190,2012-12-08 00:35:00
6:55 PM,57.2,57.2,100,29.90,7.0,South,5.8,-,N/A,,Mostly Cloudy,190,2012-12-08 00:55:00
7:15 PM,57.2,57.2,100,29.90,7.0,South,5.8,-,N/A,,Mostly Cloudy,190,2012-12-08 01:15:00
7:35 PM,57.2,57.2,100,29.91,7.0,South,6.9,-,N/A,,Scattered Clouds,190,2012-12-08 01:35:00
7:55 PM,57.2,57.2,100,29.90,7.0,South,6.9,-,N/A,,Mostly Cloudy,180,2012-12-08 01:55:00
8:15 PM,57.2,57.2,100,29.90,7.0,South,5.8,-,N/A,,Mostly Cloudy,180,2012-12-08 02:15:00
8:35 PM,57.2,57.2,100,29.90,8.0,South,6.9,-,N/A,,Scattered Clouds,180,2012-12-08 02:35:00
8:55 PM,57.2,57.2,100,29.90,10.0,South,6.9,-,N/A,,Mostly Cloudy,190,2012-12-08 02:55:00
9:15 PM,57.2,57.2,100,29.90,10.0,South,6.9,-,N/A,,Overcast,180,2012-12-08 03:15:00
9:35 PM,57.2,57.2,100,29.90,10.0,SSW,5.8,-,N/A,,Overcast,200,2012-12-08 03:35:00
9:55 PM,57.2,57.2,100,29.90,9.0,SSW,5.8,-,N/A,,Mostly Cloudy,200,2012-12-08 03:55:00
10:35 PM,57.2,57.2,100,29.89,8.0,South,6.9,-,N/A,,Overcast,190,2012-12-08 04:35:00
10:55 PM,57.2,57.2,100,29.89,8.0,SSW,8.1,-,N/A,,Overcast,200,2012-12-08 04:55:00
11:15 PM,59.0,57.2,94,29.88,8.0,SSW,8.1,-,N/A,,Overcast,210,2012-12-08 05:15:00
11:35 PM,59.0,57.2,94,29.89,9.0,SW,8.1,16.1,N/A,,Overcast,220,2012-12-08 05:35:00
11:55 PM,59.0,57.2,94,29.88,10.0,SSW,9.2,-,N/A,,Overcast,210,2012-12-08 05:55:00